MARK1: Marion Levee

Data processed at Thu May 23 2019 23:50


All information presented herein is the property of the government of the United States of America and may be revised or deleted at any time without prior notice.
Dissemination of this information without the expressed written consent of the Public Affairs Office, Tulsa District U.S. Army Corps of Engineers is strictly prohibited.
These data are gathered electronically and, as presented, have not undergone any form of quality control. These data are not guaranteed to be valid or correct.
Go to home page.
Go to station list.
Go to home page.

Upstream stations:

Downstream station:
Previous Day
Next Day
Current Day
    
SHEF ID:       MARK1     COTTONWOOD R AT MARION, KS
STATION TYPE:  
Regulating: Stage =    16.00, Flow =     4479

               PRECIP     STAGE  RIV-FLOW  BAT-LOAD
                   in        ft       cfs      volt
              Ccp-Rev   Ccp-Rev   Ccp-Rev   Ccp-Rev
(US/Central)
05/23 00:00      0.00     11.47      2474     12.95
05/23 01:00      0.00     11.48      2478     12.95
05/23 02:00      0.00     11.49      2482     12.89
05/23 03:00      0.00     11.49      2482     12.89
05/23 04:00      0.00     11.42      2455     12.89
05/23 05:00      0.00     11.30      2409     12.89
05/23 06:00      0.00     11.34      2424     12.89
05/23 07:00      0.00     11.14      2348     12.89
05/23 08:00      0.00     10.89      2255     12.89
05/23 09:00      0.00     11.05      2315     12.95
05/23 10:00      0.00     10.89      2255     13.18
05/23 11:00      0.00     11.11      2337     13.42
05/23 12:00      0.00     10.97      2285     13.65
05/23 13:00      0.00     10.06      1958     13.48
05/23 14:00      0.00      8.45      1434     13.36
05/23 15:00      0.00      7.80      1244     13.42
05/23 16:00      0.00      7.64      1198     13.42
05/23 17:00      0.00      7.41       885     13.36
05/23 18:00      0.00      7.51      1027     13.18
05/23 19:00      0.00      7.38       846     13.07
05/23 20:00      0.01      7.68      1210     13.00
05/23 21:00      0.00      7.58      1139     13.00
05/23 22:00      0.00      7.52      1043     13.00
05/23 23:00      0.00      7.48       983     12.95